»·PEaware :: N303PW KLAX-KSAN

N303PW :: KLAX-KSAN

FLIGHT INFORMATION

Flight Status: Arrived
Operator: Privately registered:
United States
More flights under this callsign
Pilot: Paul W. (27512)
Aircraft: CESSNA 172 SKYHAWK
(C172)
More flights by this aircraft type
Origin: KLAX Los Angeles Intl
United States
Destination: KSAN San Diego Intl-Lindbergh
United States
More flights between these airports :: More routes between these airports
Route: +
File this flight plan on PilotEdge
Remarks:
Altitude:
(Current/Filed)
3,500ft
Speed:
(Current/Filed)
130kts
Departed: 07-Feb-20 05:06 PM
Arrived: 07-Feb-20 06:32 PM
Distance/Time
Traveled:
95nm/1:26
Distance/Time
To Go:
Arrived

Flight Plot

Page will automatically refresh every two minutes.


Map Options




Map Legend


Flown Route
Filed Route
Departure Airport
Arrival Airport
Navaid (VOR, NDB)
Fix

Horizontal Profiles

Position Reports

Time Latitude Longitude Heading Altitude Ground
Speed
07-Feb-20 16:27 33.941598 -118.382534 83 96ft 0kts
07-Feb-20 16:28 33.941598 -118.382534 83 96ft 0kts
07-Feb-20 16:29 33.941598 -118.382534 83 96ft 0kts
07-Feb-20 16:30 33.941598 -118.382534 83 96ft 0kts
07-Feb-20 16:31 33.941598 -118.382534 83 96ft 0kts
07-Feb-20 16:32 33.941598 -118.382534 83 96ft 0kts
07-Feb-20 16:33 33.941598 -118.382534 83 96ft 0kts
07-Feb-20 16:34 33.941598 -118.382534 83 96ft 0kts
07-Feb-20 16:35 33.941598 -118.382534 83 96ft 0kts
07-Feb-20 16:36 33.941598 -118.382534 83 96ft 0kts
07-Feb-20 16:37 33.941598 -118.382534 83 96ft 0kts
07-Feb-20 16:38 33.941598 -118.382534 83 96ft 0kts
07-Feb-20 16:39 33.941598 -118.382534 83 96ft 0kts
07-Feb-20 16:40 33.941598 -118.382534 83 96ft 0kts
07-Feb-20 16:41 33.941598 -118.382534 83 96ft 0kts
07-Feb-20 16:42 33.941598 -118.382534 83 96ft 0kts
07-Feb-20 16:43 33.941598 -118.382534 83 96ft 0kts
07-Feb-20 16:44 33.941598 -118.382534 83 96ft 0kts
07-Feb-20 16:45 33.941598 -118.382534 83 96ft 0kts
07-Feb-20 16:46 33.941598 -118.382534 83 96ft 0kts
07-Feb-20 16:47 33.941598 -118.382534 83 96ft 0kts
07-Feb-20 16:48 33.941598 -118.382534 83 96ft 0kts
07-Feb-20 16:49 33.941598 -118.382534 83 96ft 0kts
07-Feb-20 16:50 33.941598 -118.382534 83 96ft 0kts
07-Feb-20 16:51 33.941598 -118.382534 83 96ft 0kts
07-Feb-20 16:52 33.941598 -118.382534 83 96ft 0kts
07-Feb-20 16:53 33.941598 -118.382534 83 96ft 0kts
07-Feb-20 16:54 33.941598 -118.382534 83 96ft 0kts
07-Feb-20 16:55 33.941598 -118.382534 83 96ft 0kts
07-Feb-20 16:56 33.941598 -118.382534 83 96ft 0kts
07-Feb-20 16:57 33.941598 -118.382534 83 96ft 0kts
07-Feb-20 16:58 33.941598 -118.382534 83 96ft 0kts
07-Feb-20 16:59 33.941340 -118.380277 140 96ft 21kts
07-Feb-20 17:00 33.940699 -118.380041 171 96ft 0kts
07-Feb-20 17:01 33.940700 -118.380041 172 96ft 0kts
07-Feb-20 17:02 33.940700 -118.380041 172 96ft 0kts
07-Feb-20 17:03 33.940700 -118.380041 172 96ft 0kts
07-Feb-20 17:04 33.939988 -118.380071 217 96ft 24kts
07-Feb-20 17:05 33.938858 -118.391110 259 242ft 93kts
07-Feb-20 17:06 33.937030 -118.405778 262 846ft 88kts
07-Feb-20 17:07 33.935697 -118.423039 268 1469ft 89kts
07-Feb-20 17:08 33.936806 -118.439517 287 2127ft 82kts
07-Feb-20 17:09 33.937208 -118.456142 267 2701ft 84kts
07-Feb-20 17:10 33.938186 -118.481211 274 2281ft 116kts
07-Feb-20 17:11 33.938660 -118.504581 264 2584ft 114kts
07-Feb-20 17:13 33.936762 -118.533078 273 2525ft 138kts
07-Feb-20 17:14 33.937520 -118.566779 271 2546ft 135kts
07-Feb-20 17:15 33.938748 -118.600251 272 2542ft 134kts
07-Feb-20 17:16 33.940219 -118.632499 274 2542ft 134kts
07-Feb-20 17:17 33.940337 -118.660078 248 2537ft 134kts
07-Feb-20 17:18 33.917412 -118.661756 139 2543ft 133kts
07-Feb-20 17:19 33.898423 -118.641150 137 2542ft 133kts
07-Feb-20 17:20 33.879656 -118.620662 137 2542ft 134kts
07-Feb-20 17:21 33.863035 -118.602568 137 2542ft 134kts
07-Feb-20 17:22 33.846466 -118.584576 137 2542ft 134kts
07-Feb-20 17:23 33.829809 -118.566536 137 2542ft 134kts
07-Feb-20 17:24 33.813065 -118.548447 137 2542ft 134kts
07-Feb-20 17:25 33.794075 -118.527990 137 2542ft 134kts
07-Feb-20 17:26 33.773412 -118.505798 137 2542ft 134kts
07-Feb-20 17:27 33.753729 -118.484936 138 2542ft 133kts
07-Feb-20 17:28 33.735275 -118.463483 119 2715ft 123kts
07-Feb-20 17:29 33.725228 -118.438160 113 2766ft 129kts
07-Feb-20 17:29 33.718805 -118.420599 113 3276ft 109kts
07-Feb-20 17:31 33.709599 -118.395199 113 3407ft 127kts
07-Feb-20 17:32 33.700415 -118.368632 110 3403ft 132kts
07-Feb-20 17:33 33.692379 -118.344276 112 3402ft 133kts
07-Feb-20 17:33 33.684905 -118.322642 112 3402ft 133kts
07-Feb-20 17:35 33.673202 -118.289516 113 3402ft 133kts
07-Feb-20 17:36 33.662760 -118.260240 113 3402ft 133kts
07-Feb-20 17:36 33.653798 -118.235189 113 3402ft 133kts
07-Feb-20 17:37 33.642814 -118.204536 113 3402ft 133kts
07-Feb-20 17:39 33.630039 -118.168961 113 3402ft 131kts
07-Feb-20 17:39 33.621040 -118.143923 113 3402ft 130kts
07-Feb-20 17:40 33.610276 -118.113992 113 3402ft 130kts
07-Feb-20 17:41 33.599523 -118.084423 118 3401ft 131kts
07-Feb-20 17:42 33.582275 -118.059120 131 3402ft 130kts
07-Feb-20 17:43 33.564166 -118.034555 131 3402ft 130kts
07-Feb-20 17:44 33.546260 -118.010023 130 3402ft 130kts
07-Feb-20 17:45 33.528314 -117.985243 131 3402ft 130kts
07-Feb-20 17:46 33.510573 -117.961320 131 3402ft 130kts
07-Feb-20 17:47 33.492448 -117.937077 131 3402ft 130kts
07-Feb-20 17:48 33.474234 -117.912788 131 3402ft 130kts
07-Feb-20 17:49 33.456007 -117.888517 131 3402ft 130kts
07-Feb-20 17:50 33.437793 -117.864286 131 3402ft 130kts
07-Feb-20 17:51 33.419511 -117.839983 131 3402ft 130kts
07-Feb-20 17:52 33.401245 -117.815718 131 3402ft 130kts
07-Feb-20 17:53 33.382893 -117.791355 131 3402ft 130kts
07-Feb-20 17:54 33.364596 -117.767083 131 3402ft 130kts
07-Feb-20 17:55 33.346254 -117.742766 131 3402ft 130kts
07-Feb-20 17:56 33.327988 -117.718568 131 3402ft 130kts
07-Feb-20 17:57 33.309737 -117.694406 131 3402ft 130kts
07-Feb-20 17:58 33.291665 -117.670496 131 3402ft 130kts
07-Feb-20 17:59 33.273462 -117.646437 131 3402ft 130kts
07-Feb-20 18:00 33.255217 -117.622329 131 3402ft 130kts
07-Feb-20 18:01 33.236925 -117.598178 131 3402ft 130kts
07-Feb-20 18:02 33.218628 -117.574036 131 3402ft 130kts
07-Feb-20 18:03 33.200511 -117.550147 131 3402ft 130kts
07-Feb-20 18:04 33.182429 -117.526321 131 3402ft 130kts
07-Feb-20 18:05 33.165056 -117.503302 129 3402ft 131kts
07-Feb-20 18:06 33.151345 -117.483186 129 3402ft 131kts
07-Feb-20 18:07 33.137150 -117.463269 130 3402ft 131kts
07-Feb-20 18:08 33.122553 -117.443774 131 3402ft 131kts
07-Feb-20 18:09 33.107865 -117.424427 131 3402ft 131kts
07-Feb-20 18:10 33.093229 -117.405174 131 3402ft 131kts
07-Feb-20 18:11 33.078507 -117.385821 131 3402ft 131kts
07-Feb-20 18:12 33.063884 -117.366608 131 3402ft 131kts
07-Feb-20 18:13 33.049381 -117.347562 132 3402ft 131kts
07-Feb-20 18:14 33.032229 -117.331281 155 3402ft 130kts
07-Feb-20 18:15 33.007948 -117.320416 160 3402ft 131kts
07-Feb-20 18:16 32.983520 -117.310198 160 3402ft 131kts
07-Feb-20 18:17 32.958171 -117.299602 160 3402ft 131kts
07-Feb-20 18:18 32.932849 -117.289023 160 3402ft 131kts
07-Feb-20 18:19 32.907555 -117.278462 160 3402ft 131kts
07-Feb-20 18:20 32.882431 -117.267979 160 3402ft 131kts
07-Feb-20 18:21 32.857191 -117.257453 160 3402ft 131kts
07-Feb-20 18:22 32.832045 -117.246693 157 3351ft 124kts
07-Feb-20 18:23 32.808301 -117.234004 154 2909ft 127kts
07-Feb-20 18:24 32.785420 -117.220600 154 2277ft 124kts
07-Feb-20 18:25 32.762311 -117.207280 154 1120ft 123kts
07-Feb-20 18:26 32.745099 -117.195180 119 920ft 104kts
07-Feb-20 18:27 32.739747 -117.178807 103 893ft 104kts
07-Feb-20 18:28 32.737454 -117.163646 115 774ft 86kts
07-Feb-20 18:29 32.728994 -117.172088 284 439ft 86kts
07-Feb-20 18:30 32.732315 -117.184674 287 19ft 50kts
07-Feb-20 18:31 32.732457 -117.188520 165 15ft 0kts
07-Feb-20 18:32 32.732457 -117.188520 165 15ft 0kts
07-Feb-20 18:33 32.732457 -117.188520 165 15ft 0kts
07-Feb-20 18:34 32.731990 -117.188590 231 14ft 9kts
07-Feb-20 18:35 32.732188 -117.190575 230 15ft 20kts
07-Feb-20 18:36 32.731352 -117.190587 118 14ft 0kts
07-Feb-20 18:37 32.731352 -117.190587 118 14ft 0kts
07-Feb-20 18:38 32.731352 -117.190587 118 14ft 0kts
07-Feb-20 18:39 32.731352 -117.190587 118 14ft 0kts
07-Feb-20 18:40 32.731352 -117.190587 118 14ft 0kts
07-Feb-20 18:41 32.731352 -117.190587 118 14ft 0kts
07-Feb-20 18:42 32.731352 -117.190587 118 14ft 0kts
07-Feb-20 18:43 32.731352 -117.190587 118 14ft 0kts
07-Feb-20 18:44 32.731352 -117.190587 118 14ft 0kts
07-Feb-20 18:45 32.731352 -117.190587 118 14ft 0kts
07-Feb-20 18:46 32.731352 -117.190587 118 14ft 0kts

Navigation Log

Ident Type
Flight plan parsing failed, navigation log unavailable